createdAt,value
2019-01-30T00:02:27.506Z,131.70
2019-01-30T00:04:58.613Z,132.20
2019-01-30T00:07:29.509Z,135.43
2019-01-30T00:10:00.950Z,116.57
2019-01-30T00:12:31.572Z,133.77
2019-01-30T00:15:02.857Z,121.37
2019-01-30T00:17:33.888Z,117.63
2019-01-30T00:20:05.942Z,98.10
2019-01-30T00:22:36.715Z,106.17
2019-01-30T00:25:07.671Z,97.20
2019-01-30T00:28:01.069Z,94.23
2019-01-30T00:30:32.052Z,83.97
2019-01-30T00:33:03.488Z,95.07
2019-01-30T00:35:34.061Z,77.97
2019-01-30T00:38:05.349Z,99.90
2019-01-30T00:40:36.088Z,83.57
2019-01-30T00:43:07.330Z,107.47
2019-01-30T00:45:38.308Z,87.03
2019-01-30T00:48:09.299Z,90.07
2019-01-30T00:50:41.052Z,80.23
2019-01-30T00:53:12.027Z,80.23
2019-01-30T00:55:44.131Z,85.90
2019-01-30T00:58:15.736Z,86.30
2019-01-30T01:00:46.760Z,80.63
2019-01-30T01:03:17.254Z,72.47
2019-01-30T01:05:49.246Z,95.67
2019-01-30T01:08:19.892Z,78.17
2019-01-30T01:10:50.954Z,78.97
2019-01-30T01:13:22.267Z,86.10
2019-01-30T01:15:53.395Z,78.57
2019-01-30T01:18:24.405Z,77.30
2019-01-30T01:20:55.183Z,92.17
2019-01-30T01:23:26.591Z,72.87
2019-01-30T01:25:57.290Z,68.23
2019-01-30T01:28:28.233Z,77.00
2019-01-30T01:30:59.338Z,86.03
2019-01-30T01:33:29.823Z,81.70
2019-01-30T01:36:01.103Z,81.17
2019-01-30T01:38:32.248Z,74.77
2019-01-30T01:41:03.088Z,72.37
2019-01-30T01:43:33.395Z,88.57
2019-01-30T01:46:04.091Z,74.47
2019-01-30T01:48:35.067Z,68.47
2019-01-30T01:51:06.277Z,85.33
2019-01-30T01:53:36.853Z,72.90
2019-01-30T01:56:07.985Z,73.97
2019-01-30T01:58:38.936Z,64.37
2019-01-30T02:01:09.575Z,78.60
2019-01-30T02:03:40.614Z,70.57
2019-01-30T02:06:10.998Z,71.50
2019-01-30T02:08:42.133Z,69.27
2019-01-30T02:11:15.964Z,67.10
2019-01-30T02:13:47.008Z,75.67
2019-01-30T02:16:19.376Z,74.20
2019-01-30T02:18:50.488Z,68.30
2019-01-30T02:21:21.459Z,68.90
2019-01-30T02:23:52.122Z,71.50
2019-01-30T02:26:23.475Z,67.90
2019-01-30T02:28:54.487Z,68.40
2019-01-30T02:31:25.183Z,62.40
2019-01-30T02:33:55.448Z,56.77
2019-01-30T02:36:26.861Z,64.07
2019-01-30T02:38:58.298Z,60.70
2019-01-30T02:41:29.105Z,53.73
2019-01-30T02:43:59.758Z,56.73
2019-01-30T02:46:30.741Z,57.03
2019-01-30T02:49:01.687Z,62.37
2019-01-30T02:51:32.534Z,58.37
2019-01-30T02:54:03.266Z,59.70
2019-01-30T02:56:33.752Z,57.50
2019-01-30T02:59:04.648Z,46.23
2019-01-30T03:01:43.519Z,55.03
2019-01-30T03:04:14.384Z,60.53
2019-01-30T03:06:44.833Z,53.13
2019-01-30T03:09:15.030Z,51.70
2019-01-30T03:11:45.616Z,59.40
2019-01-30T03:14:16.493Z,49.87
2019-01-30T03:16:47.761Z,57.03
2019-01-30T03:19:18.238Z,50.33
2019-01-30T03:21:48.926Z,46.90
2019-01-30T03:24:19.648Z,72.10
2019-01-30T03:26:51.587Z,47.47
2019-01-30T03:29:23.054Z,55.70
2019-01-30T03:31:53.714Z,49.53
2019-01-30T03:34:24.780Z,55.33
2019-01-30T03:36:56.135Z,57.90
2019-01-30T03:39:26.466Z,65.83
2019-01-30T03:41:57.743Z,64.93
2019-01-30T03:44:28.327Z,57.20
2019-01-30T03:46:58.847Z,69.07
2019-01-30T03:49:29.423Z,72.57
2019-01-30T03:52:00.462Z,67.87
2019-01-30T03:54:31.134Z,60.93
2019-01-30T03:57:01.898Z,60.67
2019-01-30T03:59:32.551Z,75.40
2019-01-30T04:02:03.014Z,65.50
2019-01-30T04:04:33.783Z,61.83
2019-01-30T04:07:04.412Z,75.37
2019-01-30T04:09:35.175Z,63.57
2019-01-30T04:12:06.783Z,67.73
2019-01-30T04:14:38.538Z,77.43
2019-01-30T04:17:09.590Z,74.10
2019-01-30T04:19:40.612Z,66.47
2019-01-30T04:22:12.398Z,74.10
2019-01-30T04:24:43.579Z,76.63
2019-01-30T04:27:14.978Z,72.27
2019-01-30T04:29:46.003Z,70.23
2019-01-30T04:32:16.779Z,72.43
2019-01-30T04:34:48.140Z,68.47
2019-01-30T04:37:19.090Z,82.00
2019-01-30T04:39:49.733Z,85.90
2019-01-30T04:42:20.249Z,77.60
2019-01-30T04:44:51.669Z,70.33
2019-01-30T04:47:22.309Z,68.97
2019-01-30T04:49:53.127Z,76.17
2019-01-30T04:52:23.843Z,71.63
2019-01-30T04:54:54.419Z,112.70
2019-01-30T04:57:25.335Z,142.30
2019-01-30T04:59:55.881Z,94.90
2019-01-30T05:02:26.615Z,88.10
2019-01-30T05:04:57.147Z,75.07
2019-01-30T05:07:28.349Z,85.20
2019-01-30T05:09:59.561Z,73.93
2019-01-30T05:12:30.525Z,78.80
2019-01-30T05:15:02.055Z,68.03
2019-01-30T05:17:32.616Z,82.90
2019-01-30T05:20:04.280Z,83.20
2019-01-30T05:22:34.949Z,72.90
2019-01-30T05:25:06.151Z,81.50
2019-01-30T05:27:37.339Z,89.60
2019-01-30T05:30:12.190Z,67.43
2019-01-30T05:32:43.574Z,70.47
2019-01-30T05:35:14.250Z,65.13
2019-01-30T05:37:45.073Z,66.67
2019-01-30T05:40:17.376Z,79.57
2019-01-30T05:42:47.806Z,76.47
2019-01-30T05:45:18.852Z,90.93
2019-01-30T05:47:49.588Z,95.30
2019-01-30T05:50:21.076Z,83.10
2019-01-30T05:52:51.790Z,76.30
2019-01-30T05:55:22.365Z,86.90
2019-01-30T05:57:53.087Z,88.90
2019-01-30T06:00:32.060Z,89.93
2019-01-30T06:03:02.416Z,84.10
2019-01-30T06:05:33.025Z,79.77
2019-01-30T06:08:03.732Z,82.07
2019-01-30T06:10:34.785Z,84.83
2019-01-30T06:13:05.927Z,65.23
2019-01-30T06:15:36.178Z,100.93
2019-01-30T06:18:06.937Z,76.97
2019-01-30T06:20:38.095Z,80.57
2019-01-30T06:23:08.729Z,93.07
2019-01-30T06:25:39.675Z,65.50
2019-01-30T06:28:10.707Z,83.50
2019-01-30T06:30:41.426Z,76.97
2019-01-30T06:33:12.711Z,92.63
2019-01-30T06:35:43.241Z,88.37
2019-01-30T06:38:13.568Z,75.10
2019-01-30T06:40:43.970Z,85.07
2019-01-30T06:43:14.727Z,97.40
2019-01-30T06:45:45.223Z,98.80
2019-01-30T06:48:15.842Z,91.33
2019-01-30T06:50:46.780Z,85.27
2019-01-30T06:53:20.140Z,80.00
2019-01-30T06:55:51.019Z,80.30
2019-01-30T06:58:22.988Z,78.10
2019-01-30T07:00:53.507Z,79.50
2019-01-30T07:03:25.039Z,86.90
2019-01-30T07:05:56.982Z,76.10
2019-01-30T07:08:30.878Z,81.07
2019-01-30T07:11:10.331Z,77.63
2019-01-30T07:13:34.524Z,66.07
2019-01-30T07:16:04.971Z,76.67
2019-01-30T07:24:32.959Z,92.63
2019-01-30T07:27:04.047Z,88.10
2019-01-30T07:29:35.025Z,89.17
2019-01-30T07:32:05.907Z,103.33
2019-01-30T07:34:36.300Z,102.40
2019-01-30T07:37:07.997Z,107.20
2019-01-30T07:39:38.447Z,94.50
2019-01-30T07:42:13.307Z,77.20
2019-01-30T07:44:50.501Z,82.60
2019-01-30T07:47:16.799Z,84.37
2019-01-30T07:49:47.347Z,67.77
2019-01-30T07:52:19.293Z,68.43
2019-01-30T07:54:50.414Z,60.93
2019-01-30T07:57:21.714Z,64.03
2019-01-30T07:59:52.154Z,61.50
2019-01-30T08:02:22.818Z,56.67
2019-01-30T08:04:54.440Z,50.57
2019-01-30T08:07:27.702Z,56.67
2019-01-30T08:09:58.546Z,47.47
2019-01-30T08:12:29.017Z,46.03
2019-01-30T08:14:59.677Z,50.40
2019-01-30T08:17:30.519Z,46.07
2019-01-30T08:20:01.087Z,48.63
2019-01-30T08:22:32.834Z,44.10
2019-01-30T08:25:04.499Z,46.83
2019-01-30T08:27:36.425Z,44.43
2019-01-30T08:30:16.149Z,43.20
2019-01-30T08:32:44.295Z,66.90
2019-01-30T08:35:15.683Z,44.20
2019-01-30T08:37:46.908Z,44.50
2019-01-30T08:40:17.765Z,44.80
2019-01-30T08:42:48.455Z,46.27
2019-01-30T08:45:21.636Z,42.70
2019-01-30T08:47:52.207Z,42.57
2019-01-30T08:50:23.456Z,42.07
2019-01-30T08:52:55.893Z,44.20
2019-01-30T08:55:26.888Z,43.63
2019-01-30T08:57:57.685Z,44.10
2019-01-30T09:00:29.482Z,43.90
2019-01-30T09:03:00.251Z,39.97
2019-01-30T09:05:31.513Z,37.60
2019-01-30T09:08:02.080Z,36.97
2019-01-30T09:10:32.432Z,38.90
2019-01-30T09:13:02.826Z,38.97
2019-01-30T09:15:33.473Z,38.00
2019-01-30T09:18:04.239Z,39.40
2019-01-30T09:20:35.031Z,42.47
2019-01-30T09:23:05.743Z,38.83
2019-01-30T09:25:36.472Z,37.50
2019-01-30T09:28:08.504Z,38.70
2019-01-30T09:30:40.516Z,36.87
2019-01-30T09:33:13.178Z,37.87
2019-01-30T09:35:44.429Z,35.60
2019-01-30T09:38:15.466Z,35.80
2019-01-30T09:40:46.291Z,37.50
2019-01-30T09:43:16.938Z,36.33
2019-01-30T09:45:48.230Z,34.57
2019-01-30T09:48:19.014Z,36.23
2019-01-30T09:50:49.832Z,38.83
2019-01-30T09:53:22.309Z,35.50
2019-01-30T09:55:53.529Z,35.50
2019-01-30T09:58:24.423Z,36.07
2019-01-30T10:00:55.795Z,36.07
2019-01-30T10:03:35.727Z,35.00
2019-01-30T10:06:01.078Z,35.53
2019-01-30T10:08:31.773Z,36.97
2019-01-30T10:11:02.883Z,35.30
2019-01-30T10:13:33.811Z,35.60
2019-01-30T10:16:04.856Z,37.17
2019-01-30T10:18:36.005Z,35.83
2019-01-30T10:21:06.709Z,36.60
2019-01-30T10:23:37.391Z,37.30
2019-01-30T10:26:08.130Z,39.03
2019-01-30T10:28:39.254Z,39.60
2019-01-30T10:31:09.905Z,40.30
2019-01-30T10:33:46.346Z,38.00
2019-01-30T10:36:12.770Z,37.67
2019-01-30T10:38:43.754Z,40.53
2019-01-30T10:41:14.793Z,41.20
2019-01-30T10:43:46.927Z,39.40
2019-01-30T10:46:18.152Z,39.67
2019-01-30T10:48:48.780Z,37.73
2019-01-30T10:51:19.925Z,41.77
2019-01-30T10:53:51.728Z,39.70
2019-01-30T10:56:22.878Z,46.27
2019-01-30T10:58:54.615Z,41.40
2019-01-30T11:01:25.553Z,39.37
2019-01-30T11:03:57.636Z,39.13
2019-01-30T11:06:28.626Z,42.77
2019-01-30T11:08:59.269Z,39.50
2019-01-30T11:11:30.528Z,43.83
2019-01-30T11:14:01.406Z,39.67
2019-01-30T11:16:32.457Z,40.20
2019-01-30T11:19:04.188Z,41.13
2019-01-30T11:21:35.492Z,43.23
2019-01-30T11:24:07.367Z,45.97
2019-01-30T11:26:38.380Z,41.60
2019-01-30T11:29:10.876Z,45.13
2019-01-30T11:31:41.540Z,44.33
2019-01-30T11:34:12.585Z,42.33
2019-01-30T11:36:43.316Z,42.23
2019-01-30T11:39:13.746Z,43.93
2019-01-30T11:41:44.868Z,43.27
2019-01-30T11:44:15.769Z,43.30
2019-01-30T11:46:46.561Z,43.77
2019-01-30T11:49:18.587Z,42.10
2019-01-30T11:51:49.223Z,43.47
2019-01-30T11:54:24.714Z,41.00
2019-01-30T11:56:58.154Z,39.00
2019-01-30T11:59:29.800Z,40.80
2019-01-30T12:02:01.428Z,43.50
2019-01-30T12:04:32.195Z,43.77
2019-01-30T12:07:03.336Z,44.57
2019-01-30T12:09:34.065Z,43.50
2019-01-30T12:12:06.630Z,45.40
2019-01-30T12:14:38.741Z,44.40
2019-01-30T12:17:09.926Z,43.47
2019-01-30T12:19:40.371Z,42.67
2019-01-30T12:22:11.380Z,44.10
2019-01-30T12:24:42.360Z,44.93
2019-01-30T12:27:14.299Z,42.00
2019-01-30T12:29:45.181Z,42.03
2019-01-30T12:32:17.285Z,42.73
2019-01-30T12:34:49.148Z,40.07
2019-01-30T12:37:21.090Z,39.40
2019-01-30T12:39:51.824Z,40.53
2019-01-30T12:42:22.615Z,42.47
2019-01-30T12:44:54.169Z,41.83
2019-01-30T12:47:24.937Z,39.87
2019-01-30T12:49:55.714Z,41.10
2019-01-30T12:52:26.405Z,39.83
2019-01-30T12:54:59.803Z,41.37
2019-01-30T12:57:30.720Z,42.67
2019-01-30T13:00:01.608Z,39.10
2019-01-30T13:02:32.133Z,39.53
2019-01-30T13:05:05.492Z,41.80
2019-01-30T13:07:35.833Z,39.77
2019-01-30T13:10:08.183Z,39.47
2019-01-30T13:12:38.874Z,39.40
2019-01-30T13:15:14.805Z,38.53
2019-01-30T13:17:46.733Z,39.70
2019-01-30T13:20:19.665Z,41.17
2019-01-30T13:22:50.395Z,40.83
2019-01-30T13:25:27.349Z,40.03
2019-01-30T13:27:59.682Z,41.27
2019-01-30T13:30:35.494Z,40.83
2019-01-30T13:33:07.950Z,42.17
2019-01-30T13:35:44.075Z,40.47
2019-01-30T13:38:18.587Z,39.93
2019-01-30T13:40:49.991Z,39.50
2019-01-30T13:43:20.777Z,38.47
2019-01-30T13:45:51.210Z,43.23
2019-01-30T13:48:22.527Z,40.53
2019-01-30T13:50:53.259Z,38.10
2019-01-30T13:53:26.558Z,38.93
2019-01-30T13:56:01.822Z,39.83
2019-01-30T13:58:32.662Z,43.37
2019-01-30T14:01:16.979Z,41.53
2019-01-30T14:03:41.475Z,49.57
2019-01-30T14:06:15.758Z,43.77
2019-01-30T14:08:47.865Z,40.50
2019-01-30T14:11:21.926Z,38.67
2019-01-30T14:13:53.031Z,39.57
2019-01-30T14:16:23.576Z,42.07
2019-01-30T14:18:54.987Z,40.53
2019-01-30T14:21:26.750Z,39.67
2019-01-30T14:23:57.305Z,42.20
2019-01-30T14:26:28.303Z,42.97
2019-01-30T14:29:00.068Z,41.37
2019-01-30T14:31:32.223Z,44.00
2019-01-30T14:34:04.261Z,46.00
2019-01-30T14:36:35.372Z,43.47
2019-01-30T14:39:09.321Z,44.50
2019-01-30T14:41:40.494Z,43.77
2019-01-30T14:44:12.025Z,42.40
2019-01-30T14:46:43.123Z,50.93
2019-01-30T14:49:13.459Z,46.57
2019-01-30T14:51:44.797Z,41.87
2019-01-30T14:54:16.052Z,43.60
2019-01-30T14:56:48.158Z,44.70
2019-01-30T14:59:20.607Z,45.50
2019-01-30T15:01:51.305Z,44.03
2019-01-30T15:04:22.320Z,45.23
2019-01-30T15:06:53.435Z,51.17
2019-01-30T15:09:23.982Z,48.40
2019-01-30T15:11:55.502Z,42.03
2019-01-30T15:14:26.439Z,45.60
2019-01-30T15:16:57.712Z,44.50
2019-01-30T15:19:29.022Z,44.03
2019-01-30T15:21:59.955Z,45.00
2019-01-30T15:24:32.853Z,44.63
2019-01-30T15:27:04.092Z,43.10
2019-01-30T15:29:35.884Z,41.83
2019-01-30T15:32:07.021Z,43.67
2019-01-30T15:34:37.604Z,44.97
2019-01-30T15:37:09.336Z,45.93
2019-01-30T15:39:41.211Z,44.40
2019-01-30T15:42:13.475Z,47.70
2019-01-30T15:44:44.110Z,50.43
2019-01-30T15:47:14.782Z,49.93
2019-01-30T15:49:46.979Z,46.50
2019-01-30T15:52:17.756Z,56.03
2019-01-30T15:54:48.889Z,58.77
2019-01-30T15:57:19.616Z,57.43
2019-01-30T15:59:49.946Z,60.73
2019-01-30T16:02:20.474Z,72.13
2019-01-30T16:04:51.023Z,68.20
2019-01-30T16:07:22.565Z,103.23
2019-01-30T16:09:53.740Z,139.67
2019-01-30T16:12:24.176Z,159.40
2019-01-30T16:14:55.401Z,153.07
2019-01-30T16:17:26.106Z,146.97
2019-01-30T16:19:57.021Z,128.30
2019-01-30T16:22:27.766Z,78.70
2019-01-30T16:25:08.494Z,71.20
2019-01-30T16:27:32.693Z,72.50
2019-01-30T16:30:04.460Z,72.03
2019-01-30T16:32:35.596Z,65.63
2019-01-30T16:35:08.240Z,68.87
2019-01-30T16:37:39.343Z,74.57
2019-01-30T16:40:12.335Z,70.60
2019-01-30T16:42:44.109Z,79.57
2019-01-30T16:45:17.682Z,86.90
2019-01-30T16:47:49.126Z,84.43
2019-01-30T16:50:20.696Z,96.73
2019-01-30T16:52:51.697Z,86.97
2019-01-30T16:55:24.260Z,85.40
2019-01-30T16:57:55.755Z,80.63
2019-01-30T17:00:29.712Z,80.47
2019-01-30T17:03:00.922Z,83.47
2019-01-30T17:05:33.263Z,76.33
2019-01-30T17:08:04.869Z,74.37
2019-01-30T17:10:36.224Z,74.73
2019-01-30T17:13:09.355Z,68.67
2019-01-30T17:15:40.620Z,66.13
2019-01-30T17:18:13.691Z,72.53
2019-01-30T17:20:45.353Z,79.67
2019-01-30T17:23:17.701Z,76.13
2019-01-30T17:25:49.256Z,79.80
2019-01-30T17:28:21.023Z,84.37
2019-01-30T17:31:17.261Z,78.93
2019-01-30T17:33:48.411Z,94.27
2019-01-30T17:36:19.790Z,87.07
2019-01-30T17:38:51.322Z,81.30
2019-01-30T17:41:22.378Z,94.17
2019-01-30T17:43:56.035Z,82.23
2019-01-30T17:46:28.628Z,76.33
2019-01-30T17:49:01.011Z,79.23
2019-01-30T17:51:32.505Z,72.30
2019-01-30T17:54:04.043Z,79.90
2019-01-30T17:56:35.424Z,80.10
2019-01-30T17:59:08.946Z,62.70
2019-01-30T18:01:41.580Z,81.83
2019-01-30T18:04:13.858Z,78.07
2019-01-30T18:06:45.468Z,75.13
2019-01-30T18:09:20.593Z,74.00
2019-01-30T18:11:52.610Z,76.27
2019-01-30T18:14:24.128Z,68.10
2019-01-30T18:16:56.663Z,70.80
2019-01-30T18:19:27.816Z,76.93
2019-01-30T18:21:59.822Z,79.07
2019-01-30T18:24:31.726Z,71.70
2019-01-30T18:27:03.271Z,64.50
2019-01-30T18:29:34.628Z,67.30
2019-01-30T18:32:05.899Z,82.60
2019-01-30T18:34:37.508Z,73.23
2019-01-30T18:37:09.531Z,72.03
2019-01-30T18:39:41.725Z,74.97
2019-01-30T18:42:14.132Z,92.27
2019-01-30T18:44:46.240Z,78.43
2019-01-30T18:47:18.245Z,79.23
2019-01-30T18:49:49.952Z,77.17
2019-01-30T18:52:20.945Z,83.83
2019-01-30T18:54:53.019Z,73.43
2019-01-30T18:57:24.008Z,65.67
2019-01-30T18:59:55.685Z,68.60
2019-01-30T19:02:27.022Z,78.10
2019-01-30T19:04:58.057Z,74.97
2019-01-30T19:07:29.578Z,77.50
2019-01-30T19:10:00.658Z,85.03
2019-01-30T19:12:32.316Z,74.93
2019-01-30T19:15:04.506Z,76.70
2019-01-30T19:17:37.902Z,62.73
2019-01-30T19:20:12.000Z,74.40
2019-01-30T19:22:42.930Z,70.43
2019-01-30T19:25:14.085Z,66.60
2019-01-30T19:27:49.579Z,71.47
2019-01-30T19:30:23.511Z,69.13
2019-01-30T19:32:54.812Z,68.93
2019-01-30T19:35:25.917Z,70.53
2019-01-30T19:37:56.942Z,73.13
2019-01-30T19:40:28.520Z,69.77
2019-01-30T19:43:00.140Z,69.87
2019-01-30T19:45:31.136Z,70.60
2019-01-30T19:48:02.919Z,72.07
2019-01-30T19:50:33.736Z,64.57
2019-01-30T19:53:06.042Z,59.37
2019-01-30T19:55:38.146Z,68.10
2019-01-30T19:58:12.350Z,72.30
2019-01-30T20:00:48.561Z,72.47
2019-01-30T20:03:25.481Z,76.97
2019-01-30T20:05:57.848Z,72.37
2019-01-30T20:08:30.495Z,75.67
2019-01-30T20:11:02.343Z,71.53
2019-01-30T20:13:34.131Z,72.53
2019-01-30T20:16:09.102Z,63.50
2019-01-30T20:18:40.232Z,73.93
2019-01-30T20:21:11.628Z,78.77
2019-01-30T20:23:43.499Z,73.57
2019-01-30T20:26:15.403Z,81.60
2019-01-30T20:28:46.784Z,74.87
2019-01-30T20:31:18.295Z,77.70
2019-01-30T20:33:49.859Z,77.43
2019-01-30T20:36:21.790Z,64.20
2019-01-30T20:38:53.138Z,69.20
2019-01-30T20:41:23.898Z,76.57
2019-01-30T20:43:56.549Z,73.83
2019-01-30T20:46:27.563Z,62.93
2019-01-30T20:48:59.131Z,68.17
2019-01-30T20:51:30.229Z,73.30
2019-01-30T20:54:01.670Z,77.77
2019-01-30T20:56:34.219Z,65.80
2019-01-30T20:59:05.432Z,84.43
2019-01-30T21:01:38.140Z,77.77
2019-01-30T21:04:08.909Z,79.30
2019-01-30T21:06:39.944Z,82.07
2019-01-30T21:09:11.748Z,73.80
2019-01-30T21:11:42.821Z,78.33
2019-01-30T21:14:14.192Z,74.53
2019-01-30T21:16:45.509Z,73.07
2019-01-30T21:19:16.289Z,70.27
2019-01-30T21:21:47.500Z,70.57
2019-01-30T21:24:18.700Z,74.30
2019-01-30T21:26:51.004Z,71.27
2019-01-30T21:29:22.699Z,86.67
2019-01-30T21:31:54.900Z,79.20
2019-01-30T21:34:26.377Z,71.30
2019-01-30T21:36:58.246Z,84.87
2019-01-30T21:39:29.368Z,75.70
2019-01-30T21:42:00.381Z,80.60
2019-01-30T21:44:32.874Z,78.80
2019-01-30T21:47:03.621Z,82.17
2019-01-30T21:49:36.343Z,97.37
2019-01-30T21:52:07.915Z,81.73
2019-01-30T21:54:40.971Z,98.30
2019-01-30T21:57:11.727Z,72.07
2019-01-30T21:59:44.021Z,92.20
2019-01-30T22:02:14.802Z,86.07
2019-01-30T22:04:45.479Z,81.73
2019-01-30T22:07:18.024Z,90.83
2019-01-30T22:09:48.631Z,96.43
2019-01-30T22:12:19.770Z,93.73
2019-01-30T22:14:50.725Z,106.90
2019-01-30T22:17:21.804Z,93.10
2019-01-30T22:19:52.505Z,89.07
2019-01-30T22:22:23.659Z,105.93
2019-01-30T22:24:54.681Z,100.67
2019-01-30T22:27:25.224Z,90.80
2019-01-30T22:29:56.113Z,109.83
2019-01-30T22:32:26.968Z,107.13
2019-01-30T22:34:59.903Z,104.73
2019-01-30T22:37:30.790Z,93.90
2019-01-30T22:40:01.711Z,98.07
2019-01-30T22:42:32.993Z,103.30
2019-01-30T22:45:03.967Z,104.83
2019-01-30T22:47:34.574Z,103.47
2019-01-30T22:50:06.618Z,104.63
2019-01-30T22:52:37.225Z,97.37
2019-01-30T22:55:09.738Z,99.17
2019-01-30T22:57:40.089Z,99.50
2019-01-30T23:01:04.611Z,101.53
2019-01-30T23:04:08.361Z,97.57
2019-01-30T23:07:03.605Z,107.83
2019-01-30T23:10:07.696Z,103.80
2019-01-30T23:13:09.182Z,123.77
2019-01-30T23:16:02.377Z,104.63
2019-01-30T23:19:12.069Z,101.33
2019-01-30T23:22:00.450Z,116.80
2019-01-30T23:24:51.509Z,113.83
2019-01-30T23:27:36.169Z,124.17
2019-01-30T23:30:43.660Z,109.40
2019-01-30T23:34:19.639Z,108.37
2019-01-30T23:37:10.560Z,112.67
2019-01-30T23:40:12.146Z,115.77
2019-01-30T23:43:04.319Z,100.90
2019-01-30T23:45:43.371Z,111.07
2019-01-30T23:48:43.627Z,121.57
2019-01-30T23:51:47.548Z,109.77
2019-01-30T23:55:17.927Z,115.23
2019-01-30T23:58:28.928Z,98.33
